createdAt,value
2018-06-24T00:00:05.876Z,100035.48
2018-06-24T00:02:35.086Z,100037.69
2018-06-24T00:05:04.324Z,100039.04
2018-06-24T00:07:33.477Z,100035.18
2018-06-24T00:10:02.678Z,100044.17
2018-06-24T00:12:31.953Z,100037.23
2018-06-24T00:15:01.077Z,100046.45
2018-06-24T00:17:30.269Z,100042.08
2018-06-24T00:19:59.469Z,100040.49
2018-06-24T00:22:28.546Z,100036.98
2018-06-24T00:24:57.677Z,100042.63
2018-06-24T00:27:27.041Z,100038.33
2018-06-24T00:29:56.265Z,100040.13
2018-06-24T00:32:25.573Z,100036.34
2018-06-24T00:34:54.781Z,100030.39
2018-06-24T00:37:23.986Z,100035.27
2018-06-24T00:39:53.170Z,100034.84
2018-06-24T00:42:22.352Z,100030.87
2018-06-24T00:44:51.845Z,100031.91
2018-06-24T00:47:20.862Z,100024.30
2018-06-24T00:49:50.088Z,100032.88
2018-06-24T00:52:19.258Z,100023.23
2018-06-24T00:54:48.458Z,100021.66
2018-06-24T00:57:17.734Z,100023.13
2018-06-24T00:59:57.498Z,100025.11
2018-06-24T01:02:26.837Z,100023.06
2018-06-24T01:04:55.994Z,100019.19
2018-06-24T01:07:25.199Z,100019.41
2018-06-24T01:09:54.393Z,100023.52
2018-06-24T01:12:23.706Z,100024.04
2018-06-24T01:14:52.942Z,100024.86
2018-06-24T01:17:22.098Z,100017.45
2018-06-24T01:19:51.392Z,100022.25
2018-06-24T01:22:20.607Z,100021.69
2018-06-24T01:24:49.805Z,100022.73
2018-06-24T01:27:19.034Z,100022.95
2018-06-24T01:29:48.097Z,100021.36
2018-06-24T01:32:17.388Z,100018.71
2018-06-24T01:34:46.650Z,100026.16
2018-06-24T01:37:15.781Z,100022.33
2018-06-24T01:39:45.018Z,100019.79
2018-06-24T01:42:14.186Z,100021.25
2018-06-24T01:44:43.411Z,100018.27
2018-06-24T01:47:12.573Z,100020.16
2018-06-24T01:49:42.057Z,100025.12
2018-06-24T01:52:11.183Z,100026.42
2018-06-24T01:54:40.398Z,100029.05
2018-06-24T01:57:09.577Z,100043.83
2018-06-24T01:59:38.910Z,100042.90
2018-06-24T02:02:08.090Z,100045.58
2018-06-24T02:04:37.283Z,100041.97
2018-06-24T02:07:06.473Z,100037.92
2018-06-24T02:09:35.670Z,100043.31
2018-06-24T02:12:04.797Z,100044.43
2018-06-24T02:14:33.973Z,100048.88
2018-06-24T02:17:03.174Z,100048.13
2018-06-24T02:19:32.369Z,100046.27
2018-06-24T02:22:01.561Z,100042.59
2018-06-24T02:24:30.791Z,100047.03
2018-06-24T02:26:59.966Z,100047.95
2018-06-24T02:29:29.153Z,100051.03
2018-06-24T02:31:58.403Z,100051.05
2018-06-24T02:34:27.679Z,100049.52
2018-06-24T02:36:56.994Z,100051.79
2018-06-24T02:39:26.169Z,100057.27
2018-06-24T02:41:55.346Z,100064.27
2018-06-24T02:44:24.627Z,100070.04
2018-06-24T02:46:53.866Z,100065.73
2018-06-24T02:49:23.078Z,100060.83
2018-06-24T02:51:52.341Z,100061.21
2018-06-24T02:54:21.550Z,100060.61
2018-06-24T02:56:50.755Z,100057.39
2018-06-24T02:59:19.962Z,100065.52
2018-06-24T03:01:49.151Z,100066.11
2018-06-24T03:04:18.409Z,100060.03
2018-06-24T03:06:47.526Z,100060.33
2018-06-24T03:09:16.742Z,100057.95
2018-06-24T03:11:45.930Z,100063.20
2018-06-24T03:14:15.163Z,100065.56
2018-06-24T03:16:44.317Z,100060.03
2018-06-24T03:19:13.413Z,100059.19
2018-06-24T03:21:42.649Z,100056.94
2018-06-24T03:24:11.826Z,100049.05
2018-06-24T03:26:41.018Z,100057.97
2018-06-24T03:29:10.219Z,100061.28
2018-06-24T03:31:39.427Z,100061.53
2018-06-24T03:34:08.711Z,100055.31
2018-06-24T03:36:37.915Z,100064.65
2018-06-24T03:39:09.453Z,100047.37
2018-06-24T03:41:38.685Z,100045.89
2018-06-24T03:44:08.145Z,100053.52
2018-06-24T03:46:37.654Z,100038.10
2018-06-24T03:49:06.769Z,100046.67
2018-06-24T03:51:36.035Z,100051.86
2018-06-24T03:54:05.165Z,100043.91
2018-06-24T03:56:34.370Z,100052.16
2018-06-24T03:59:03.757Z,100049.98
2018-06-24T04:01:32.957Z,100044.08
2018-06-24T04:04:02.293Z,100040.91
2018-06-24T04:06:31.461Z,100047.00
2018-06-24T04:09:00.423Z,100040.22
2018-06-24T04:11:29.454Z,100045.94
2018-06-24T04:13:58.641Z,100042.08
2018-06-24T04:16:27.991Z,100045.93
2018-06-24T04:18:57.141Z,100050.34
2018-06-24T04:21:26.337Z,100046.40
2018-06-24T04:23:55.573Z,100046.91
2018-06-24T04:26:24.738Z,100045.00
2018-06-24T04:28:53.938Z,100037.66
2018-06-24T04:31:23.138Z,100035.69
2018-06-24T04:33:52.339Z,100036.42
2018-06-24T04:36:21.551Z,100030.23
2018-06-24T04:38:50.850Z,100038.64
2018-06-24T04:41:20.026Z,100033.29
2018-06-24T04:43:49.225Z,100032.72
2018-06-24T04:46:18.702Z,100031.16
2018-06-24T04:48:47.525Z,100026.47
2018-06-24T04:51:16.521Z,100028.55
2018-06-24T04:53:45.726Z,100024.92
2018-06-24T04:56:14.739Z,100029.05
2018-06-24T04:58:43.985Z,100025.12
2018-06-24T05:01:13.353Z,100022.75
2018-06-24T05:03:42.542Z,100030.37
2018-06-24T05:06:11.626Z,100026.36
2018-06-24T05:08:40.597Z,100030.31
2018-06-24T05:11:09.893Z,100032.67
2018-06-24T05:13:39.538Z,100030.08
2018-06-24T05:16:08.477Z,100027.33
2018-06-24T05:18:37.729Z,100025.59
2018-06-24T05:21:06.894Z,100037.22
2018-06-24T05:23:36.118Z,100036.29
2018-06-24T05:26:05.379Z,100031.64
2018-06-24T05:28:34.352Z,100035.88
2018-06-24T05:31:03.525Z,100028.52
2018-06-24T05:33:32.808Z,100027.52
2018-06-24T05:36:02.101Z,100030.74
2018-06-24T05:38:31.185Z,100029.80
2018-06-24T05:41:00.490Z,100028.56
2018-06-24T05:43:29.702Z,100032.14
2018-06-24T05:45:58.785Z,100030.66
2018-06-24T05:48:27.782Z,100027.53
2018-06-24T05:50:57.013Z,100019.83
2018-06-24T05:53:25.985Z,100019.02
2018-06-24T05:55:55.174Z,100017.23
2018-06-24T05:58:24.175Z,100019.30
2018-06-24T06:00:53.391Z,100021.80
2018-06-24T06:03:22.387Z,100017.93
2018-06-24T06:05:51.359Z,100000.80
2018-06-24T06:08:20.546Z,99995.38
2018-06-24T06:10:49.658Z,99992.92
2018-06-24T06:13:18.915Z,99994.22
2018-06-24T06:15:48.322Z,99992.42
2018-06-24T06:18:17.489Z,99992.56
2018-06-24T06:20:46.438Z,99997.12
2018-06-24T06:23:15.650Z,99992.00
2018-06-24T06:25:44.640Z,99993.02
2018-06-24T06:28:13.821Z,99983.91
2018-06-24T06:30:42.862Z,99987.01
2018-06-24T06:33:12.013Z,99990.00
2018-06-24T06:35:41.258Z,99990.22
2018-06-24T06:38:10.422Z,99982.91
2018-06-24T06:40:39.614Z,99985.20
2018-06-24T06:43:08.883Z,99979.16
2018-06-24T06:45:38.012Z,99976.17
2018-06-24T06:48:07.037Z,99977.47
2018-06-24T06:50:36.084Z,99970.94
2018-06-24T06:53:05.091Z,99973.34
2018-06-24T06:55:34.200Z,99977.09
2018-06-24T06:58:03.507Z,99976.61
2018-06-24T07:00:32.822Z,99975.05
2018-06-24T07:03:01.981Z,99981.69
2018-06-24T07:05:31.192Z,99979.16
2018-06-24T07:08:01.052Z,99970.73
2018-06-24T07:10:30.093Z,99975.59
2018-06-24T07:12:59.440Z,99974.27
2018-06-24T07:15:28.620Z,99977.43
2018-06-24T07:17:57.884Z,99987.88
2018-06-24T07:20:27.095Z,99985.36
2018-06-24T07:22:56.281Z,99980.66
2018-06-24T07:25:25.523Z,99983.02
2018-06-24T07:27:54.482Z,99978.58
2018-06-24T07:30:23.760Z,99982.79
2018-06-24T07:32:52.981Z,99977.02
2018-06-24T07:35:22.169Z,99977.38
2018-06-24T07:37:51.502Z,99975.53
2018-06-24T07:40:20.791Z,99982.11
2018-06-24T07:42:50.076Z,99979.50
2018-06-24T07:45:19.381Z,99982.27
2018-06-24T07:47:48.609Z,99981.58
2018-06-24T07:50:17.828Z,99982.52
2018-06-24T07:52:46.982Z,99989.06
2018-06-24T07:55:16.174Z,99986.27
2018-06-24T07:57:45.370Z,99986.22
2018-06-24T08:00:14.184Z,99987.54
2018-06-24T08:02:42.957Z,99981.20
2018-06-24T08:05:11.681Z,99985.47
2018-06-24T08:07:40.427Z,99982.98
2018-06-24T08:10:09.170Z,99978.31
2018-06-24T08:12:37.902Z,99979.29
2018-06-24T08:15:06.674Z,99984.39
2018-06-24T08:17:35.428Z,99990.36
2018-06-24T08:20:04.220Z,99998.52
2018-06-24T08:22:32.901Z,99994.17
2018-06-24T08:25:01.605Z,99994.64
2018-06-24T08:27:30.413Z,99992.73
2018-06-24T08:29:59.122Z,99995.70
2018-06-24T08:32:27.985Z,100000.95
2018-06-24T08:34:56.727Z,99997.80
2018-06-24T08:37:25.462Z,99996.36
2018-06-24T08:39:54.195Z,100006.30
2018-06-24T08:42:22.927Z,100009.50
2018-06-24T08:44:51.660Z,100002.89
2018-06-24T08:47:20.384Z,100007.62
2018-06-24T08:49:49.105Z,100009.14
2018-06-24T08:52:17.834Z,100007.92
2018-06-24T08:54:46.545Z,100014.24
2018-06-24T08:57:15.285Z,100015.39
2018-06-24T08:59:44.078Z,100010.95
2018-06-24T09:02:12.777Z,100015.14
2018-06-24T09:04:41.527Z,100015.79
2018-06-24T09:07:10.239Z,100010.78
2018-06-24T09:09:38.937Z,100012.99
2018-06-24T09:12:07.699Z,100017.05
2018-06-24T09:14:36.653Z,100014.70
2018-06-24T09:17:05.360Z,100012.39
2018-06-24T09:19:34.064Z,100019.41
2018-06-24T09:22:02.844Z,100016.20
2018-06-24T09:24:32.502Z,100014.86
2018-06-24T09:27:01.292Z,100024.70
2018-06-24T09:29:30.027Z,100018.51
2018-06-24T09:31:58.770Z,100019.30
2018-06-24T09:34:27.492Z,100020.80
2018-06-24T09:36:56.603Z,100009.92
2018-06-24T09:39:25.617Z,100008.84
2018-06-24T09:41:55.073Z,100005.92
2018-06-24T09:44:24.194Z,99986.81
2018-06-24T09:46:53.298Z,100002.66
2018-06-24T09:49:22.629Z,99995.24
2018-06-24T09:51:51.926Z,99998.30
2018-06-24T09:54:20.985Z,99996.60
2018-06-24T09:56:50.221Z,99990.37
2018-06-24T09:59:19.173Z,99996.21
2018-06-24T10:01:48.385Z,99986.02
2018-06-24T10:04:17.593Z,99985.92
2018-06-24T10:06:46.911Z,99987.58
2018-06-24T10:09:16.217Z,100000.14
2018-06-24T10:11:45.502Z,99991.88
2018-06-24T10:14:14.714Z,99984.73
2018-06-24T10:16:43.677Z,99984.59
2018-06-24T10:19:12.876Z,99982.08
2018-06-24T10:21:42.021Z,99982.08
2018-06-24T10:24:11.070Z,99981.67
2018-06-24T10:26:40.265Z,99983.94
2018-06-24T10:29:09.577Z,99980.13
2018-06-24T10:31:38.553Z,99974.18
2018-06-24T10:34:07.787Z,99974.50
2018-06-24T10:36:36.952Z,99974.69
2018-06-24T10:39:09.189Z,99971.05
2018-06-24T10:41:38.322Z,99972.98
2018-06-24T10:44:07.921Z,99975.88
2018-06-24T10:46:37.101Z,99964.36
2018-06-24T10:49:06.426Z,99970.56
2018-06-24T10:51:35.550Z,99958.83
2018-06-24T10:54:05.058Z,99954.38
2018-06-24T10:56:34.387Z,99954.27
2018-06-24T10:59:03.540Z,99951.89
2018-06-24T11:01:32.522Z,99945.55
2018-06-24T11:04:01.887Z,99939.28
2018-06-24T11:06:30.939Z,99939.20
2018-06-24T11:09:00.238Z,99944.08
2018-06-24T11:11:29.426Z,99940.72
2018-06-24T11:13:58.622Z,99939.76
2018-06-24T11:16:27.871Z,99940.19
2018-06-24T11:18:56.833Z,99936.10
2018-06-24T11:21:26.146Z,99939.95
2018-06-24T11:23:55.401Z,99931.19
2018-06-24T11:26:24.704Z,99934.14
2018-06-24T11:28:53.930Z,99930.45
2018-06-24T11:31:23.308Z,99937.57
2018-06-24T11:33:52.633Z,99932.13
2018-06-24T11:36:21.843Z,99924.60
2018-06-24T11:38:50.981Z,99927.70
2018-06-24T11:41:20.086Z,99927.38
2018-06-24T11:43:49.217Z,99926.52
2018-06-24T11:46:18.406Z,99921.38
2018-06-24T11:48:47.590Z,99927.77
2018-06-24T11:51:16.849Z,99930.61
2018-06-24T11:53:46.053Z,99930.95
2018-06-24T11:56:15.323Z,99922.24
2018-06-24T11:58:44.525Z,99919.67
2018-06-24T12:01:13.695Z,99917.69
2018-06-24T12:03:42.893Z,99911.98
2018-06-24T12:06:11.902Z,99909.91
2018-06-24T12:08:41.091Z,99909.76
2018-06-24T12:11:10.262Z,99909.37
2018-06-24T12:13:39.787Z,99904.02
2018-06-24T12:16:08.806Z,99900.22
2018-06-24T12:18:38.908Z,99892.69
2018-06-24T12:21:07.662Z,99893.14
2018-06-24T12:23:36.449Z,99898.53
2018-06-24T12:26:05.722Z,99896.41
2018-06-24T12:28:34.437Z,99910.45
2018-06-24T12:31:03.310Z,99909.09
2018-06-24T12:33:32.100Z,99896.89
2018-06-24T12:36:00.830Z,99907.05
2018-06-24T12:38:29.575Z,99900.33
2018-06-24T12:40:58.777Z,99889.83
2018-06-24T12:43:27.515Z,99894.09
2018-06-24T12:45:57.436Z,99903.85
2018-06-24T12:48:26.178Z,99896.45
2018-06-24T12:50:54.909Z,99886.75
2018-06-24T12:53:23.615Z,99890.23
2018-06-24T12:55:52.402Z,99883.73
2018-06-24T12:58:21.167Z,99883.84
2018-06-24T13:00:50.468Z,99889.22
2018-06-24T13:03:18.667Z,99888.78
2018-06-24T13:05:47.561Z,99887.64
2018-06-24T13:08:16.274Z,99889.41
2018-06-24T13:10:45.165Z,99887.17
2018-06-24T13:13:13.953Z,99883.31
2018-06-24T13:15:42.755Z,99877.82
2018-06-24T13:18:11.834Z,99880.97
2018-06-24T13:20:40.609Z,99879.76
2018-06-24T13:23:09.335Z,99878.05
2018-06-24T13:25:38.758Z,99873.59
2018-06-24T13:28:08.631Z,99870.44
2018-06-24T13:30:37.493Z,99873.35
2018-06-24T13:33:06.405Z,99871.34
2018-06-24T13:35:35.572Z,99875.03
2018-06-24T13:38:04.349Z,99872.02
2018-06-24T13:40:33.513Z,99874.80
2018-06-24T13:43:02.769Z,99868.81
2018-06-24T13:45:32.549Z,99866.44
2018-06-24T13:48:01.506Z,99865.77
2018-06-24T13:50:30.335Z,99863.28
2018-06-24T13:52:59.274Z,99865.72
2018-06-24T13:55:27.994Z,99867.48
2018-06-24T13:57:56.790Z,99858.84
2018-06-24T14:00:25.556Z,99861.25
2018-06-24T14:02:54.462Z,99856.75
2018-06-24T14:05:23.312Z,99864.69
2018-06-24T14:07:52.067Z,99855.05
2018-06-24T14:10:20.765Z,99861.03
2018-06-24T14:12:49.520Z,99854.91
2018-06-24T14:15:18.332Z,99856.78
2018-06-24T14:17:47.049Z,99860.91
2018-06-24T14:20:16.168Z,99848.98
2018-06-24T14:22:45.211Z,99853.30
2018-06-24T14:25:14.008Z,99848.70
2018-06-24T14:27:42.747Z,99846.93
2018-06-24T14:30:11.452Z,99850.56
2018-06-24T14:32:40.175Z,99851.63
2018-06-24T14:35:08.878Z,99852.84
2018-06-24T14:37:37.585Z,99843.40
2018-06-24T14:40:06.344Z,99851.41
2018-06-24T14:42:35.166Z,99847.07
2018-06-24T14:45:03.909Z,99843.10
2018-06-24T14:47:32.680Z,99846.88
2018-06-24T14:50:01.592Z,99848.92
2018-06-24T14:52:30.349Z,99844.56
2018-06-24T14:54:59.093Z,99837.51
2018-06-24T14:57:27.834Z,99846.30
2018-06-24T14:59:56.555Z,99844.83
2018-06-24T15:02:25.435Z,99843.20
2018-06-24T15:04:54.163Z,99845.52
2018-06-24T15:07:22.944Z,99842.64
2018-06-24T15:09:51.892Z,99844.14
2018-06-24T15:12:20.635Z,99845.47
2018-06-24T15:14:49.403Z,99801.90
2018-06-24T15:17:18.213Z,99842.63
2018-06-24T15:19:46.950Z,99840.45
2018-06-24T15:22:15.645Z,99842.91
2018-06-24T15:24:44.361Z,99844.61
2018-06-24T15:27:13.199Z,99838.14
2018-06-24T15:29:41.936Z,99840.20
2018-06-24T15:32:10.712Z,99839.51
2018-06-24T15:34:39.440Z,99831.16
2018-06-24T15:37:08.165Z,99836.77
2018-06-24T15:39:36.939Z,99832.39
2018-06-24T15:42:05.701Z,99837.53
2018-06-24T15:44:34.411Z,99833.34
2018-06-24T15:47:03.110Z,99834.01
2018-06-24T15:49:31.853Z,99834.09
2018-06-24T15:52:00.587Z,99831.77
2018-06-24T15:54:29.329Z,99832.80
2018-06-24T15:56:58.180Z,99828.94
2018-06-24T15:59:26.902Z,99836.75
2018-06-24T16:01:55.632Z,99840.20
2018-06-24T16:04:24.357Z,99842.30
2018-06-24T16:06:53.210Z,99845.27
2018-06-24T16:09:21.986Z,99849.09
2018-06-24T16:11:50.930Z,99846.39
2018-06-24T16:14:19.655Z,99849.61
2018-06-24T16:16:48.458Z,99848.28
2018-06-24T16:19:18.493Z,99851.17
2018-06-24T16:21:48.875Z,99856.94
2018-06-24T16:24:20.296Z,99849.41
2018-06-24T16:26:50.048Z,99847.91
2018-06-24T16:29:20.083Z,99842.28
2018-06-24T16:31:50.664Z,99846.91
2018-06-24T16:34:20.642Z,99796.34
2018-06-24T16:36:49.818Z,99844.98
2018-06-24T16:39:18.545Z,99847.72
2018-06-24T16:41:47.453Z,99854.10
2018-06-24T16:44:16.163Z,99855.69
2018-06-24T16:46:45.254Z,99850.77
2018-06-24T16:49:14.139Z,99855.78
2018-06-24T16:51:42.880Z,99855.34
2018-06-24T16:54:12.622Z,99857.30
2018-06-24T16:56:41.386Z,99857.20
2018-06-24T16:59:10.128Z,99857.91
2018-06-24T17:01:38.870Z,99855.84
2018-06-24T17:04:07.626Z,99856.59
2018-06-24T17:06:36.405Z,99860.78
2018-06-24T17:09:07.963Z,99860.89
2018-06-24T17:11:37.073Z,99863.50
2018-06-24T17:14:05.896Z,99862.89
2018-06-24T17:16:35.661Z,99866.08
2018-06-24T17:19:04.643Z,99869.00
2018-06-24T17:21:33.422Z,99860.43
2018-06-24T17:24:02.283Z,99861.96
2018-06-24T17:26:31.035Z,99860.75
2018-06-24T17:28:59.874Z,99860.29
2018-06-24T17:31:28.763Z,99856.82
2018-06-24T17:33:57.505Z,99862.39
2018-06-24T17:36:26.257Z,99860.80
2018-06-24T17:38:55.190Z,99868.05
2018-06-24T17:41:23.921Z,99873.09
2018-06-24T17:43:52.682Z,99877.59
2018-06-24T17:46:21.459Z,99871.92
2018-06-24T17:48:50.195Z,99882.11
2018-06-24T17:51:19.015Z,99879.25
2018-06-24T17:53:47.844Z,99880.94
2018-06-24T17:56:16.642Z,99875.01
2018-06-24T17:58:45.368Z,99873.98
2018-06-24T18:01:14.261Z,99875.38
2018-06-24T18:03:43.292Z,99877.88
2018-06-24T18:06:17.867Z,99877.65
2018-06-24T18:08:52.742Z,99879.63
2018-06-24T18:11:27.748Z,99880.53
2018-06-24T18:14:02.337Z,99884.96
2018-06-24T18:16:36.848Z,99882.58
2018-06-24T18:19:12.718Z,99883.70
2018-06-24T18:21:47.410Z,99883.75
2018-06-24T18:24:23.382Z,99884.55
2018-06-24T18:26:58.835Z,99887.83
2018-06-24T18:29:34.314Z,99890.86
2018-06-24T18:32:09.693Z,99894.45
2018-06-24T18:34:44.633Z,99893.41
2018-06-24T18:37:20.365Z,99897.26
2018-06-24T18:39:55.660Z,99902.18
2018-06-24T18:42:29.774Z,99901.37
2018-06-24T18:45:01.600Z,99905.48
2018-06-24T18:47:33.579Z,99905.77
2018-06-24T18:50:02.761Z,99903.33
2018-06-24T18:52:31.715Z,99907.14
2018-06-24T18:55:00.438Z,99909.89
2018-06-24T18:57:32.701Z,99912.07
2018-06-24T19:00:04.390Z,99909.87
2018-06-24T19:02:37.173Z,99916.14
2018-06-24T19:05:06.298Z,99920.75
2018-06-24T19:07:35.003Z,99923.70
2018-06-24T19:10:03.891Z,99928.06
2018-06-24T19:12:32.629Z,99924.27
2018-06-24T19:15:01.435Z,99926.98
2018-06-24T19:17:30.213Z,99926.42
2018-06-24T19:19:58.942Z,99926.98
2018-06-24T19:22:27.689Z,99926.73
2018-06-24T19:24:56.482Z,99931.64
2018-06-24T19:27:25.234Z,99931.38
2018-06-24T19:29:54.049Z,99938.17
2018-06-24T19:32:22.770Z,99937.36
2018-06-24T19:34:51.512Z,99932.71
2018-06-24T19:37:20.239Z,99933.80
2018-06-24T19:39:49.161Z,99929.48
2018-06-24T19:42:21.665Z,99933.82
2018-06-24T19:44:50.627Z,99938.72
2018-06-24T19:47:19.462Z,99938.71
2018-06-24T19:49:48.179Z,99939.27
2018-06-24T19:52:17.348Z,99937.08
2018-06-24T19:54:46.314Z,99933.84
2018-06-24T19:57:15.234Z,99934.91
2018-06-24T19:59:45.018Z,99933.03
2018-06-24T20:02:14.379Z,99931.92
2018-06-24T20:04:43.096Z,99939.53
2018-06-24T20:07:11.846Z,99940.09
2018-06-24T20:09:40.592Z,99938.73
2018-06-24T20:12:09.362Z,99939.53
2018-06-24T20:14:38.071Z,99938.45
2018-06-24T20:17:06.870Z,99941.97
2018-06-24T20:19:35.629Z,99938.44
2018-06-24T20:22:04.465Z,99938.41
2018-06-24T20:24:33.169Z,99941.93
2018-06-24T20:27:01.927Z,99945.46
2018-06-24T20:29:30.839Z,99954.70
2018-06-24T20:31:59.603Z,99944.08
2018-06-24T20:34:28.339Z,99941.39
2018-06-24T20:36:57.200Z,99943.03
2018-06-24T20:39:25.938Z,99943.31
2018-06-24T20:41:55.419Z,99945.19
2018-06-24T20:44:24.398Z,99940.28
2018-06-24T20:46:53.137Z,99939.48
2018-06-24T20:49:21.858Z,99938.94
2018-06-24T20:51:50.545Z,99942.77
2018-06-24T20:54:19.268Z,99940.59
2018-06-24T20:56:47.990Z,99937.30
2018-06-24T20:59:16.677Z,99929.97
2018-06-24T21:01:45.361Z,99943.31
2018-06-24T21:04:15.903Z,99937.88
2018-06-24T21:06:44.959Z,99938.67
2018-06-24T21:09:13.676Z,99938.40
2018-06-24T21:11:42.356Z,99933.79
2018-06-24T21:14:12.356Z,99944.08
2018-06-24T21:16:41.116Z,99946.52
2018-06-24T21:19:09.841Z,99949.51
2018-06-24T21:21:38.545Z,99945.68
2018-06-24T21:24:07.362Z,99946.50
2018-06-24T21:26:36.101Z,99944.05
2018-06-24T21:29:04.849Z,99938.31
2018-06-24T21:31:33.804Z,99937.23
2018-06-24T21:34:02.506Z,99942.91
2018-06-24T21:36:31.422Z,99937.19
2018-06-24T21:39:00.122Z,99939.06
2018-06-24T21:41:28.842Z,99939.30
2018-06-24T21:43:57.604Z,99942.27
2018-06-24T21:46:26.470Z,99939.55
2018-06-24T21:48:55.220Z,99947.19
2018-06-24T21:51:23.941Z,99948.00
2018-06-24T21:53:52.670Z,99950.41
2018-06-24T21:56:21.607Z,99951.94
2018-06-24T21:58:50.327Z,99958.97
2018-06-24T22:01:19.226Z,99949.23
2018-06-24T22:03:48.629Z,99943.52
2018-06-24T22:06:17.349Z,99942.17
2018-06-24T22:08:46.120Z,99946.78
2018-06-24T22:11:14.855Z,99939.48
2018-06-24T22:13:43.623Z,99940.55
2018-06-24T22:16:12.349Z,99943.29
2018-06-24T22:18:41.096Z,99952.72
2018-06-24T22:21:09.810Z,99950.59
2018-06-24T22:23:38.618Z,99950.55
2018-06-24T22:26:07.617Z,99954.08
2018-06-24T22:28:36.361Z,99954.63
2018-06-24T22:31:05.230Z,99953.53
2018-06-24T22:33:33.957Z,99951.06
2018-06-24T22:36:02.915Z,99945.66
2018-06-24T22:38:31.745Z,99943.14
2018-06-24T22:41:00.522Z,99948.27
2018-06-24T22:43:29.250Z,99948.00
2018-06-24T22:45:57.994Z,99949.66
2018-06-24T22:48:26.769Z,99946.09
2018-06-24T22:50:55.513Z,99940.97
2018-06-24T22:53:24.241Z,99942.30
2018-06-24T22:55:52.941Z,99944.47
2018-06-24T22:58:21.694Z,99935.51
2018-06-24T23:00:50.503Z,99936.28
2018-06-24T23:03:19.162Z,99931.09
2018-06-24T23:05:47.958Z,99929.42
2018-06-24T23:08:16.868Z,99929.95
2018-06-24T23:10:45.598Z,99926.52
2018-06-24T23:13:14.298Z,99922.72
2018-06-24T23:15:43.017Z,99918.34
2018-06-24T23:18:11.739Z,99919.34
2018-06-24T23:20:40.500Z,99924.76
2018-06-24T23:23:09.197Z,99914.68
2018-06-24T23:25:37.902Z,99923.36
2018-06-24T23:28:06.984Z,99921.19
2018-06-24T23:30:35.773Z,99922.72
2018-06-24T23:33:04.575Z,99927.38
2018-06-24T23:35:33.317Z,99918.16
2018-06-24T23:38:02.046Z,99920.55
2018-06-24T23:40:30.945Z,99921.08
2018-06-24T23:42:59.699Z,99918.06
2018-06-24T23:45:28.447Z,99921.22
2018-06-24T23:47:57.187Z,99921.72
2018-06-24T23:50:25.912Z,99923.83
2018-06-24T23:52:54.615Z,99922.48
2018-06-24T23:55:23.480Z,99922.78
2018-06-24T23:57:52.223Z,99919.48
